sensor_id;sensor_type;location;lat;lon;timestamp;temperature;humidity
43581;DHT22;29175;51.030;4.606;2024-01-07T00:00:30;4.60;99.90
43581;DHT22;29175;51.030;4.606;2024-01-07T00:02:56;4.60;99.90
43581;DHT22;29175;51.030;4.606;2024-01-07T00:05:21;4.70;99.90
43581;DHT22;29175;51.030;4.606;2024-01-07T00:07:47;4.70;99.90
43581;DHT22;29175;51.030;4.606;2024-01-07T00:10:13;4.70;99.90
43581;DHT22;29175;51.030;4.606;2024-01-07T00:12:39;4.50;99.90
43581;DHT22;29175;51.030;4.606;2024-01-07T00:15:05;4.40;99.90
43581;DHT22;29175;51.030;4.606;2024-01-07T00:19:59;4.40;99.90
43581;DHT22;29175;51.030;4.606;2024-01-07T00:22:25;4.30;99.90
43581;DHT22;29175;51.030;4.606;2024-01-07T00:24:51;4.40;99.90
43581;DHT22;29175;51.030;4.606;2024-01-07T00:27:18;4.40;99.90
43581;DHT22;29175;51.030;4.606;2024-01-07T00:29:46;4.40;99.90
43581;DHT22;29175;51.030;4.606;2024-01-07T00:32:11;4.40;99.90
43581;DHT22;29175;51.030;4.606;2024-01-07T00:34:37;4.30;99.90
43581;DHT22;29175;51.030;4.606;2024-01-07T00:37:03;4.40;99.90
43581;DHT22;29175;51.030;4.606;2024-01-07T00:39:29;4.50;99.90
43581;DHT22;29175;51.030;4.606;2024-01-07T00:41:55;4.40;99.90
43581;DHT22;29175;51.030;4.606;2024-01-07T00:44:20;4.40;99.90
43581;DHT22;29175;51.030;4.606;2024-01-07T00:46:46;4.40;99.90
43581;DHT22;29175;51.030;4.606;2024-01-07T00:49:12;4.20;99.90
43581;DHT22;29175;51.030;4.606;2024-01-07T00:51:37;4.10;99.90
43581;DHT22;29175;51.030;4.606;2024-01-07T00:54:03;4.10;99.90
43581;DHT22;29175;51.030;4.606;2024-01-07T00:56:29;4.10;99.90
43581;DHT22;29175;51.030;4.606;2024-01-07T00:58:55;4.10;99.90
43581;DHT22;29175;51.030;4.606;2024-01-07T01:01:22;4.00;99.90
43581;DHT22;29175;51.030;4.606;2024-01-07T01:03:47;3.90;99.90
43581;DHT22;29175;51.030;4.606;2024-01-07T01:06:13;3.80;99.90
43581;DHT22;29175;51.030;4.606;2024-01-07T01:08:39;3.70;99.90
43581;DHT22;29175;51.030;4.606;2024-01-07T01:11:08;3.70;99.90
43581;DHT22;29175;51.030;4.606;2024-01-07T01:13:36;3.80;99.90
43581;DHT22;29175;51.030;4.606;2024-01-07T01:16:01;3.70;99.90
43581;DHT22;29175;51.030;4.606;2024-01-07T01:18:27;3.80;99.90
43581;DHT22;29175;51.030;4.606;2024-01-07T01:20:53;3.90;99.90
43581;DHT22;29175;51.030;4.606;2024-01-07T01:23:18;3.80;99.90
43581;DHT22;29175;51.030;4.606;2024-01-07T01:25:45;3.90;99.90
43581;DHT22;29175;51.030;4.606;2024-01-07T01:28:10;3.80;99.90
43581;DHT22;29175;51.030;4.606;2024-01-07T01:30:36;3.80;99.90
43581;DHT22;29175;51.030;4.606;2024-01-07T01:33:02;3.80;99.90
43581;DHT22;29175;51.030;4.606;2024-01-07T01:35:28;3.80;99.90
43581;DHT22;29175;51.030;4.606;2024-01-07T01:37:53;3.80;99.90
43581;DHT22;29175;51.030;4.606;2024-01-07T01:40:20;3.80;99.90
43581;DHT22;29175;51.030;4.606;2024-01-07T01:42:45;3.70;99.90
43581;DHT22;29175;51.030;4.606;2024-01-07T01:45:14;3.70;99.90
43581;DHT22;29175;51.030;4.606;2024-01-07T01:47:41;3.70;99.90
43581;DHT22;29175;51.030;4.606;2024-01-07T01:50:08;3.60;99.90
43581;DHT22;29175;51.030;4.606;2024-01-07T01:52:36;3.60;99.90
43581;DHT22;29175;51.030;4.606;2024-01-07T01:55:01;3.60;99.90
43581;DHT22;29175;51.030;4.606;2024-01-07T01:57:28;3.70;99.90
43581;DHT22;29175;51.030;4.606;2024-01-07T01:59:57;3.50;99.90
43581;DHT22;29175;51.030;4.606;2024-01-07T02:02:28;3.70;99.90
43581;DHT22;29175;51.030;4.606;2024-01-07T02:04:56;3.70;99.90
43581;DHT22;29175;51.030;4.606;2024-01-07T02:07:21;3.60;99.90
43581;DHT22;29175;51.030;4.606;2024-01-07T02:09:47;3.50;99.90
43581;DHT22;29175;51.030;4.606;2024-01-07T02:12:13;3.60;99.90
43581;DHT22;29175;51.030;4.606;2024-01-07T02:14:39;3.60;99.90
43581;DHT22;29175;51.030;4.606;2024-01-07T02:17:06;3.60;99.90
43581;DHT22;29175;51.030;4.606;2024-01-07T02:19:33;3.70;99.90
43581;DHT22;29175;51.030;4.606;2024-01-07T02:21:59;3.60;99.90
43581;DHT22;29175;51.030;4.606;2024-01-07T02:24:25;3.50;99.90
43581;DHT22;29175;51.030;4.606;2024-01-07T02:26:51;3.50;99.90
43581;DHT22;29175;51.030;4.606;2024-01-07T02:29:17;3.50;99.90
43581;DHT22;29175;51.030;4.606;2024-01-07T02:31:44;3.60;99.90
43581;DHT22;29175;51.030;4.606;2024-01-07T02:34:10;3.50;99.90
43581;DHT22;29175;51.030;4.606;2024-01-07T02:36:36;3.60;99.90
43581;DHT22;29175;51.030;4.606;2024-01-07T02:39:02;3.50;99.90
43581;DHT22;29175;51.030;4.606;2024-01-07T02:41:27;3.50;99.90
43581;DHT22;29175;51.030;4.606;2024-01-07T02:43:53;3.50;99.90
43581;DHT22;29175;51.030;4.606;2024-01-07T02:46:19;3.50;99.90
43581;DHT22;29175;51.030;4.606;2024-01-07T02:48:45;3.60;99.90
43581;DHT22;29175;51.030;4.606;2024-01-07T02:51:10;3.60;99.90
43581;DHT22;29175;51.030;4.606;2024-01-07T02:53:36;3.60;99.90
43581;DHT22;29175;51.030;4.606;2024-01-07T02:56:02;3.80;99.90
43581;DHT22;29175;51.030;4.606;2024-01-07T02:58:28;3.60;99.90
43581;DHT22;29175;51.030;4.606;2024-01-07T03:00:55;3.50;99.90
43581;DHT22;29175;51.030;4.606;2024-01-07T03:03:20;3.40;99.90
43581;DHT22;29175;51.030;4.606;2024-01-07T03:05:46;3.40;99.90
43581;DHT22;29175;51.030;4.606;2024-01-07T03:08:13;3.40;99.90
43581;DHT22;29175;51.030;4.606;2024-01-07T03:10:38;3.40;99.90
43581;DHT22;29175;51.030;4.606;2024-01-07T03:13:04;3.20;99.90
43581;DHT22;29175;51.030;4.606;2024-01-07T03:15:30;3.20;99.90
43581;DHT22;29175;51.030;4.606;2024-01-07T03:17:57;3.30;99.90
43581;DHT22;29175;51.030;4.606;2024-01-07T03:20:24;3.40;99.90
43581;DHT22;29175;51.030;4.606;2024-01-07T03:22:50;3.40;99.90
43581;DHT22;29175;51.030;4.606;2024-01-07T03:25:16;3.40;99.90
43581;DHT22;29175;51.030;4.606;2024-01-07T03:27:43;3.50;99.90
43581;DHT22;29175;51.030;4.606;2024-01-07T03:30:09;3.50;99.90
43581;DHT22;29175;51.030;4.606;2024-01-07T03:32:35;3.50;99.90
43581;DHT22;29175;51.030;4.606;2024-01-07T03:35:01;3.60;99.90
43581;DHT22;29175;51.030;4.606;2024-01-07T03:37:27;3.70;99.90
43581;DHT22;29175;51.030;4.606;2024-01-07T03:39:52;3.70;99.90
43581;DHT22;29175;51.030;4.606;2024-01-07T03:42:18;3.70;99.90
43581;DHT22;29175;51.030;4.606;2024-01-07T03:44:46;3.80;99.90
43581;DHT22;29175;51.030;4.606;2024-01-07T03:47:13;3.70;99.90
43581;DHT22;29175;51.030;4.606;2024-01-07T03:49:39;3.60;99.90
43581;DHT22;29175;51.030;4.606;2024-01-07T03:52:05;3.60;99.90
43581;DHT22;29175;51.030;4.606;2024-01-07T03:54:31;3.60;99.90
43581;DHT22;29175;51.030;4.606;2024-01-07T03:56:57;3.70;99.90
43581;DHT22;29175;51.030;4.606;2024-01-07T03:59:23;3.80;99.90
43581;DHT22;29175;51.030;4.606;2024-01-07T04:01:55;3.80;99.90
43581;DHT22;29175;51.030;4.606;2024-01-07T04:04:21;3.80;99.90
43581;DHT22;29175;51.030;4.606;2024-01-07T04:06:47;3.80;99.90
43581;DHT22;29175;51.030;4.606;2024-01-07T04:09:12;3.70;99.90
43581;DHT22;29175;51.030;4.606;2024-01-07T04:11:42;3.60;99.90
43581;DHT22;29175;51.030;4.606;2024-01-07T04:14:09;3.70;99.90
43581;DHT22;29175;51.030;4.606;2024-01-07T04:16:34;3.80;99.90
43581;DHT22;29175;51.030;4.606;2024-01-07T04:19:01;3.80;99.90
43581;DHT22;29175;51.030;4.606;2024-01-07T04:21:28;3.70;99.90
43581;DHT22;29175;51.030;4.606;2024-01-07T04:23:55;3.70;99.90
43581;DHT22;29175;51.030;4.606;2024-01-07T04:26:21;3.70;99.90
43581;DHT22;29175;51.030;4.606;2024-01-07T04:28:47;3.50;99.90
43581;DHT22;29175;51.030;4.606;2024-01-07T04:31:12;3.60;99.90
43581;DHT22;29175;51.030;4.606;2024-01-07T04:33:38;3.40;99.90
43581;DHT22;29175;51.030;4.606;2024-01-07T04:36:04;3.50;99.90
43581;DHT22;29175;51.030;4.606;2024-01-07T04:38:30;3.40;99.90
43581;DHT22;29175;51.030;4.606;2024-01-07T04:40:57;3.50;99.90
43581;DHT22;29175;51.030;4.606;2024-01-07T04:43:23;3.40;99.90
43581;DHT22;29175;51.030;4.606;2024-01-07T04:45:49;3.50;99.90
43581;DHT22;29175;51.030;4.606;2024-01-07T04:48:15;3.40;99.90
43581;DHT22;29175;51.030;4.606;2024-01-07T04:50:40;3.50;99.90
43581;DHT22;29175;51.030;4.606;2024-01-07T04:53:08;3.60;99.90
43581;DHT22;29175;51.030;4.606;2024-01-07T04:55:34;3.50;99.90
43581;DHT22;29175;51.030;4.606;2024-01-07T04:58:00;3.50;99.90
43581;DHT22;29175;51.030;4.606;2024-01-07T05:00:26;3.60;99.90
43581;DHT22;29175;51.030;4.606;2024-01-07T05:02:52;3.50;99.90
43581;DHT22;29175;51.030;4.606;2024-01-07T05:05:18;3.40;99.90
43581;DHT22;29175;51.030;4.606;2024-01-07T05:07:43;3.40;99.90
43581;DHT22;29175;51.030;4.606;2024-01-07T05:10:09;3.20;99.90
43581;DHT22;29175;51.030;4.606;2024-01-07T05:12:35;3.30;99.90
43581;DHT22;29175;51.030;4.606;2024-01-07T05:15:00;3.30;99.90
43581;DHT22;29175;51.030;4.606;2024-01-07T05:17:26;3.30;99.90
43581;DHT22;29175;51.030;4.606;2024-01-07T05:19:52;3.30;99.90
43581;DHT22;29175;51.030;4.606;2024-01-07T05:22:18;3.20;99.90
43581;DHT22;29175;51.030;4.606;2024-01-07T05:24:46;3.20;99.90
43581;DHT22;29175;51.030;4.606;2024-01-07T05:27:12;3.30;99.90
43581;DHT22;29175;51.030;4.606;2024-01-07T05:29:38;3.40;99.90
43581;DHT22;29175;51.030;4.606;2024-01-07T05:32:04;3.40;99.90
43581;DHT22;29175;51.030;4.606;2024-01-07T05:34:29;3.30;99.90
43581;DHT22;29175;51.030;4.606;2024-01-07T05:36:55;3.10;99.90
43581;DHT22;29175;51.030;4.606;2024-01-07T05:39:21;3.30;99.90
43581;DHT22;29175;51.030;4.606;2024-01-07T05:41:47;3.20;99.90
43581;DHT22;29175;51.030;4.606;2024-01-07T05:44:14;3.10;99.90
43581;DHT22;29175;51.030;4.606;2024-01-07T05:46:39;3.00;99.90
43581;DHT22;29175;51.030;4.606;2024-01-07T05:49:06;3.10;99.90
43581;DHT22;29175;51.030;4.606;2024-01-07T05:51:38;3.20;99.90
43581;DHT22;29175;51.030;4.606;2024-01-07T05:54:03;3.20;99.90
43581;DHT22;29175;51.030;4.606;2024-01-07T05:56:30;3.40;99.90
43581;DHT22;29175;51.030;4.606;2024-01-07T05:58:56;3.40;99.90
43581;DHT22;29175;51.030;4.606;2024-01-07T06:01:21;3.50;99.90
43581;DHT22;29175;51.030;4.606;2024-01-07T06:03:48;3.20;99.90
43581;DHT22;29175;51.030;4.606;2024-01-07T06:06:14;3.10;99.90
43581;DHT22;29175;51.030;4.606;2024-01-07T06:08:45;3.20;99.90
43581;DHT22;29175;51.030;4.606;2024-01-07T06:11:11;3.10;99.90
43581;DHT22;29175;51.030;4.606;2024-01-07T06:13:41;3.20;99.90
43581;DHT22;29175;51.030;4.606;2024-01-07T06:16:07;3.10;99.90
43581;DHT22;29175;51.030;4.606;2024-01-07T06:18:33;2.90;99.90
43581;DHT22;29175;51.030;4.606;2024-01-07T06:20:58;2.80;99.90
43581;DHT22;29175;51.030;4.606;2024-01-07T06:23:24;2.90;99.90
43581;DHT22;29175;51.030;4.606;2024-01-07T06:25:50;3.00;99.90
43581;DHT22;29175;51.030;4.606;2024-01-07T06:28:16;2.90;99.90
43581;DHT22;29175;51.030;4.606;2024-01-07T06:30:42;2.90;99.90
43581;DHT22;29175;51.030;4.606;2024-01-07T06:33:08;2.90;99.90
43581;DHT22;29175;51.030;4.606;2024-01-07T06:35:34;2.90;99.90
43581;DHT22;29175;51.030;4.606;2024-01-07T06:38:00;2.90;99.90
43581;DHT22;29175;51.030;4.606;2024-01-07T06:40:25;2.90;99.90
43581;DHT22;29175;51.030;4.606;2024-01-07T06:42:51;3.00;99.90
43581;DHT22;29175;51.030;4.606;2024-01-07T06:45:18;3.00;99.90
43581;DHT22;29175;51.030;4.606;2024-01-07T06:47:43;3.10;99.90
43581;DHT22;29175;51.030;4.606;2024-01-07T06:50:10;3.20;99.90
43581;DHT22;29175;51.030;4.606;2024-01-07T06:52:39;3.20;99.90
43581;DHT22;29175;51.030;4.606;2024-01-07T06:55:06;3.20;99.90
43581;DHT22;29175;51.030;4.606;2024-01-07T06:57:32;3.30;99.90
43581;DHT22;29175;51.030;4.606;2024-01-07T06:59:59;3.20;99.90
43581;DHT22;29175;51.030;4.606;2024-01-07T07:02:25;3.20;99.90
43581;DHT22;29175;51.030;4.606;2024-01-07T07:04:50;3.10;99.90
43581;DHT22;29175;51.030;4.606;2024-01-07T07:07:16;3.10;99.90
43581;DHT22;29175;51.030;4.606;2024-01-07T07:09:42;3.20;99.90
43581;DHT22;29175;51.030;4.606;2024-01-07T07:12:09;3.10;99.90
43581;DHT22;29175;51.030;4.606;2024-01-07T07:14:35;3.10;99.90
43581;DHT22;29175;51.030;4.606;2024-01-07T07:17:01;3.10;99.90
43581;DHT22;29175;51.030;4.606;2024-01-07T07:19:27;3.20;99.90
43581;DHT22;29175;51.030;4.606;2024-01-07T07:21:52;3.20;99.90
43581;DHT22;29175;51.030;4.606;2024-01-07T07:24:18;3.20;99.90
43581;DHT22;29175;51.030;4.606;2024-01-07T07:26:44;3.20;99.90
43581;DHT22;29175;51.030;4.606;2024-01-07T07:29:10;3.10;99.90
43581;DHT22;29175;51.030;4.606;2024-01-07T07:31:37;3.00;99.90
43581;DHT22;29175;51.030;4.606;2024-01-07T07:34:03;3.00;99.90
43581;DHT22;29175;51.030;4.606;2024-01-07T07:36:30;3.10;99.90
43581;DHT22;29175;51.030;4.606;2024-01-07T07:38:55;3.10;99.90
43581;DHT22;29175;51.030;4.606;2024-01-07T07:41:22;3.10;99.90
43581;DHT22;29175;51.030;4.606;2024-01-07T07:43:48;3.10;99.90
43581;DHT22;29175;51.030;4.606;2024-01-07T07:46:14;3.00;99.90
43581;DHT22;29175;51.030;4.606;2024-01-07T07:48:42;2.90;99.90
43581;DHT22;29175;51.030;4.606;2024-01-07T07:51:08;2.90;99.90
43581;DHT22;29175;51.030;4.606;2024-01-07T07:53:37;3.00;99.90
43581;DHT22;29175;51.030;4.606;2024-01-07T07:56:03;2.90;99.90
43581;DHT22;29175;51.030;4.606;2024-01-07T07:58:28;3.00;99.90
43581;DHT22;29175;51.030;4.606;2024-01-07T08:00:54;3.00;99.90
43581;DHT22;29175;51.030;4.606;2024-01-07T08:03:20;3.00;99.90
43581;DHT22;29175;51.030;4.606;2024-01-07T08:05:46;2.90;99.90
43581;DHT22;29175;51.030;4.606;2024-01-07T08:08:13;2.90;99.90
43581;DHT22;29175;51.030;4.606;2024-01-07T08:10:38;3.00;99.90
43581;DHT22;29175;51.030;4.606;2024-01-07T08:13:04;3.20;99.90
43581;DHT22;29175;51.030;4.606;2024-01-07T08:15:29;3.20;99.90
43581;DHT22;29175;51.030;4.606;2024-01-07T08:17:56;3.20;99.90
43581;DHT22;29175;51.030;4.606;2024-01-07T08:20:22;3.30;99.90
43581;DHT22;29175;51.030;4.606;2024-01-07T08:22:47;3.30;99.90
43581;DHT22;29175;51.030;4.606;2024-01-07T08:25:15;3.10;99.90
43581;DHT22;29175;51.030;4.606;2024-01-07T08:27:44;3.20;99.90
43581;DHT22;29175;51.030;4.606;2024-01-07T08:30:10;3.10;99.90
43581;DHT22;29175;51.030;4.606;2024-01-07T08:32:42;3.10;99.90
43581;DHT22;29175;51.030;4.606;2024-01-07T08:35:09;3.20;99.90
43581;DHT22;29175;51.030;4.606;2024-01-07T08:37:35;3.20;99.90
43581;DHT22;29175;51.030;4.606;2024-01-07T08:40:01;3.10;99.90
43581;DHT22;29175;51.030;4.606;2024-01-07T08:42:27;2.90;99.90
43581;DHT22;29175;51.030;4.606;2024-01-07T08:44:58;2.70;99.90
43581;DHT22;29175;51.030;4.606;2024-01-07T08:47:29;2.70;99.90
43581;DHT22;29175;51.030;4.606;2024-01-07T08:52:26;2.70;99.90
43581;DHT22;29175;51.030;4.606;2024-01-07T08:54:53;2.70;99.90
43581;DHT22;29175;51.030;4.606;2024-01-07T08:57:21;2.70;99.90
43581;DHT22;29175;51.030;4.606;2024-01-07T08:59:46;2.80;99.90
43581;DHT22;29175;51.030;4.606;2024-01-07T09:02:12;2.80;99.90
43581;DHT22;29175;51.030;4.606;2024-01-07T09:04:38;2.70;99.90
43581;DHT22;29175;51.030;4.606;2024-01-07T09:09:33;2.70;99.90
43581;DHT22;29175;51.030;4.606;2024-01-07T09:11:59;2.80;99.90
43581;DHT22;29175;51.030;4.606;2024-01-07T09:14:26;2.80;99.90
43581;DHT22;29175;51.030;4.606;2024-01-07T09:16:53;2.90;99.90
43581;DHT22;29175;51.030;4.606;2024-01-07T09:19:21;2.80;99.90
43581;DHT22;29175;51.030;4.606;2024-01-07T09:21:47;3.00;99.90
43581;DHT22;29175;51.030;4.606;2024-01-07T09:24:13;2.80;99.90
43581;DHT22;29175;51.030;4.606;2024-01-07T09:26:39;3.00;99.90
43581;DHT22;29175;51.030;4.606;2024-01-07T09:29:06;2.80;99.90
43581;DHT22;29175;51.030;4.606;2024-01-07T09:31:34;2.70;99.90
43581;DHT22;29175;51.030;4.606;2024-01-07T09:34:01;2.70;99.90
43581;DHT22;29175;51.030;4.606;2024-01-07T09:36:28;2.70;99.90
43581;DHT22;29175;51.030;4.606;2024-01-07T09:38:54;2.80;99.90
43581;DHT22;29175;51.030;4.606;2024-01-07T09:41:20;2.90;99.90
43581;DHT22;29175;51.030;4.606;2024-01-07T09:43:46;2.90;99.90
43581;DHT22;29175;51.030;4.606;2024-01-07T09:46:12;3.00;99.90
43581;DHT22;29175;51.030;4.606;2024-01-07T09:48:39;3.00;99.90
43581;DHT22;29175;51.030;4.606;2024-01-07T09:51:07;2.90;99.90
43581;DHT22;29175;51.030;4.606;2024-01-07T09:53:34;2.90;99.90
43581;DHT22;29175;51.030;4.606;2024-01-07T09:58:28;2.80;99.90
43581;DHT22;29175;51.030;4.606;2024-01-07T10:00:54;2.70;99.90
43581;DHT22;29175;51.030;4.606;2024-01-07T10:03:20;2.80;99.90
43581;DHT22;29175;51.030;4.606;2024-01-07T10:05:47;2.80;99.90
43581;DHT22;29175;51.030;4.606;2024-01-07T10:08:13;2.70;99.90
43581;DHT22;29175;51.030;4.606;2024-01-07T10:10:39;2.70;99.90
43581;DHT22;29175;51.030;4.606;2024-01-07T10:13:06;2.70;99.90
43581;DHT22;29175;51.030;4.606;2024-01-07T10:15:32;2.80;99.90
43581;DHT22;29175;51.030;4.606;2024-01-07T10:18:04;2.80;99.90
43581;DHT22;29175;51.030;4.606;2024-01-07T10:20:32;2.80;99.90
43581;DHT22;29175;51.030;4.606;2024-01-07T10:23:01;2.80;99.90
43581;DHT22;29175;51.030;4.606;2024-01-07T10:25:32;2.90;99.90
43581;DHT22;29175;51.030;4.606;2024-01-07T10:28:00;2.90;99.90
43581;DHT22;29175;51.030;4.606;2024-01-07T10:30:27;2.90;99.90
43581;DHT22;29175;51.030;4.606;2024-01-07T10:32:58;2.90;99.90
43581;DHT22;29175;51.030;4.606;2024-01-07T10:35:27;2.80;99.90
43581;DHT22;29175;51.030;4.606;2024-01-07T10:37:54;2.90;99.90
43581;DHT22;29175;51.030;4.606;2024-01-07T10:40:20;2.90;99.90
43581;DHT22;29175;51.030;4.606;2024-01-07T10:42:45;2.90;99.90
43581;DHT22;29175;51.030;4.606;2024-01-07T10:45:11;3.00;99.90
43581;DHT22;29175;51.030;4.606;2024-01-07T10:47:37;2.90;99.90
43581;DHT22;29175;51.030;4.606;2024-01-07T10:50:05;2.90;99.90
43581;DHT22;29175;51.030;4.606;2024-01-07T10:52:32;2.90;99.90
43581;DHT22;29175;51.030;4.606;2024-01-07T10:55:01;3.00;99.90
43581;DHT22;29175;51.030;4.606;2024-01-07T10:57:39;2.90;99.90
43581;DHT22;29175;51.030;4.606;2024-01-07T11:00:08;2.90;99.90
43581;DHT22;29175;51.030;4.606;2024-01-07T11:02:35;2.80;99.90
43581;DHT22;29175;51.030;4.606;2024-01-07T11:05:12;2.80;99.90
43581;DHT22;29175;51.030;4.606;2024-01-07T11:07:42;2.80;99.90
43581;DHT22;29175;51.030;4.606;2024-01-07T11:10:15;2.80;99.90
43581;DHT22;29175;51.030;4.606;2024-01-07T11:12:43;2.70;99.90
43581;DHT22;29175;51.030;4.606;2024-01-07T11:15:08;2.70;99.90
43581;DHT22;29175;51.030;4.606;2024-01-07T11:20:07;2.70;99.90
43581;DHT22;29175;51.030;4.606;2024-01-07T11:22:34;2.70;99.90
43581;DHT22;29175;51.030;4.606;2024-01-07T11:25:01;2.70;99.90
43581;DHT22;29175;51.030;4.606;2024-01-07T11:27:30;2.60;99.90
43581;DHT22;29175;51.030;4.606;2024-01-07T11:32:34;2.80;99.90
43581;DHT22;29175;51.030;4.606;2024-01-07T11:35:02;2.80;99.90
43581;DHT22;29175;51.030;4.606;2024-01-07T11:37:28;2.90;99.90
43581;DHT22;29175;51.030;4.606;2024-01-07T11:39:57;2.80;99.90
43581;DHT22;29175;51.030;4.606;2024-01-07T11:42:23;2.70;99.90
43581;DHT22;29175;51.030;4.606;2024-01-07T11:44:50;2.60;99.90
43581;DHT22;29175;51.030;4.606;2024-01-07T11:47:16;2.60;99.90
43581;DHT22;29175;51.030;4.606;2024-01-07T11:49:42;2.60;99.90
43581;DHT22;29175;51.030;4.606;2024-01-07T11:52:08;2.50;99.90
43581;DHT22;29175;51.030;4.606;2024-01-07T11:54:34;2.50;99.90
43581;DHT22;29175;51.030;4.606;2024-01-07T11:57:02;2.40;99.90
43581;DHT22;29175;51.030;4.606;2024-01-07T11:59:28;2.50;99.90
43581;DHT22;29175;51.030;4.606;2024-01-07T12:01:54;2.50;99.90
43581;DHT22;29175;51.030;4.606;2024-01-07T12:04:21;2.40;99.90
43581;DHT22;29175;51.030;4.606;2024-01-07T12:06:47;2.50;99.90
43581;DHT22;29175;51.030;4.606;2024-01-07T12:09:13;2.50;99.90
43581;DHT22;29175;51.030;4.606;2024-01-07T12:11:40;2.70;99.90
43581;DHT22;29175;51.030;4.606;2024-01-07T12:14:08;2.80;99.90
43581;DHT22;29175;51.030;4.606;2024-01-07T12:16:37;2.80;99.90
43581;DHT22;29175;51.030;4.606;2024-01-07T12:19:04;2.90;99.90
43581;DHT22;29175;51.030;4.606;2024-01-07T12:21:29;2.80;99.90
43581;DHT22;29175;51.030;4.606;2024-01-07T12:23:55;2.60;99.90
43581;DHT22;29175;51.030;4.606;2024-01-07T12:26:29;2.70;99.90
43581;DHT22;29175;51.030;4.606;2024-01-07T12:28:57;2.70;99.90
43581;DHT22;29175;51.030;4.606;2024-01-07T12:31:33;2.70;99.90
43581;DHT22;29175;51.030;4.606;2024-01-07T12:33:59;2.70;99.90
43581;DHT22;29175;51.030;4.606;2024-01-07T12:36:25;2.50;99.90
43581;DHT22;29175;51.030;4.606;2024-01-07T12:38:52;2.60;99.90
43581;DHT22;29175;51.030;4.606;2024-01-07T12:41:20;2.50;99.90
43581;DHT22;29175;51.030;4.606;2024-01-07T12:43:45;2.50;99.90
43581;DHT22;29175;51.030;4.606;2024-01-07T12:46:12;2.60;99.90
43581;DHT22;29175;51.030;4.606;2024-01-07T12:48:38;2.60;99.90
43581;DHT22;29175;51.030;4.606;2024-01-07T12:51:03;2.50;99.90
43581;DHT22;29175;51.030;4.606;2024-01-07T12:53:30;2.60;99.90
43581;DHT22;29175;51.030;4.606;2024-01-07T12:55:56;2.70;99.90
43581;DHT22;29175;51.030;4.606;2024-01-07T12:58:22;2.80;99.90
43581;DHT22;29175;51.030;4.606;2024-01-07T13:00:47;2.90;99.90
43581;DHT22;29175;51.030;4.606;2024-01-07T13:03:13;2.90;99.90
43581;DHT22;29175;51.030;4.606;2024-01-07T13:05:43;2.80;99.90
43581;DHT22;29175;51.030;4.606;2024-01-07T13:08:10;2.90;99.90
43581;DHT22;29175;51.030;4.606;2024-01-07T13:10:35;2.90;99.90
43581;DHT22;29175;51.030;4.606;2024-01-07T13:13:01;2.90;99.90
43581;DHT22;29175;51.030;4.606;2024-01-07T13:15:27;2.70;99.90
43581;DHT22;29175;51.030;4.606;2024-01-07T13:17:52;2.70;99.90
43581;DHT22;29175;51.030;4.606;2024-01-07T13:20:18;2.70;99.90
43581;DHT22;29175;51.030;4.606;2024-01-07T13:22:46;2.90;99.90
43581;DHT22;29175;51.030;4.606;2024-01-07T13:25:12;2.80;99.90
43581;DHT22;29175;51.030;4.606;2024-01-07T13:27:39;2.90;99.90
43581;DHT22;29175;51.030;4.606;2024-01-07T13:30:05;2.70;99.90
43581;DHT22;29175;51.030;4.606;2024-01-07T13:32:33;2.70;99.90
43581;DHT22;29175;51.030;4.606;2024-01-07T13:35:06;2.60;99.90
43581;DHT22;29175;51.030;4.606;2024-01-07T13:37:38;2.70;99.90
43581;DHT22;29175;51.030;4.606;2024-01-07T13:40:08;2.70;99.90
43581;DHT22;29175;51.030;4.606;2024-01-07T13:42:37;2.70;99.90
43581;DHT22;29175;51.030;4.606;2024-01-07T13:47:33;2.60;99.90
43581;DHT22;29175;51.030;4.606;2024-01-07T13:50:01;2.40;99.90
43581;DHT22;29175;51.030;4.606;2024-01-07T13:52:30;2.40;99.90
43581;DHT22;29175;51.030;4.606;2024-01-07T13:54:57;2.40;99.90
43581;DHT22;29175;51.030;4.606;2024-01-07T13:57:23;2.40;99.90
43581;DHT22;29175;51.030;4.606;2024-01-07T14:04:52;2.40;99.90
43581;DHT22;29175;51.030;4.606;2024-01-07T14:07:21;2.40;99.90
43581;DHT22;29175;51.030;4.606;2024-01-07T14:09:47;2.50;99.90
43581;DHT22;29175;51.030;4.606;2024-01-07T14:12:13;2.40;99.90
43581;DHT22;29175;51.030;4.606;2024-01-07T14:14:40;2.50;99.90
43581;DHT22;29175;51.030;4.606;2024-01-07T14:17:09;2.40;99.90
43581;DHT22;29175;51.030;4.606;2024-01-07T14:19:34;2.40;99.90
43581;DHT22;29175;51.030;4.606;2024-01-07T14:27:01;2.30;99.90
43581;DHT22;29175;51.030;4.606;2024-01-07T14:29:28;2.40;99.90
43581;DHT22;29175;51.030;4.606;2024-01-07T14:31:54;2.50;99.90
43581;DHT22;29175;51.030;4.606;2024-01-07T14:34:21;2.50;99.90
43581;DHT22;29175;51.030;4.606;2024-01-07T14:36:47;2.50;99.90
43581;DHT22;29175;51.030;4.606;2024-01-07T14:41:46;2.30;99.90
43581;DHT22;29175;51.030;4.606;2024-01-07T14:44:12;2.30;99.90
43581;DHT22;29175;51.030;4.606;2024-01-07T14:46:38;2.40;99.90
43581;DHT22;29175;51.030;4.606;2024-01-07T14:49:05;2.50;99.90
43581;DHT22;29175;51.030;4.606;2024-01-07T14:51:31;2.50;99.90
43581;DHT22;29175;51.030;4.606;2024-01-07T14:53:57;2.50;99.90
43581;DHT22;29175;51.030;4.606;2024-01-07T14:56:25;2.50;99.90
43581;DHT22;29175;51.030;4.606;2024-01-07T14:58:52;2.60;99.90
43581;DHT22;29175;51.030;4.606;2024-01-07T15:01:19;2.40;99.90
43581;DHT22;29175;51.030;4.606;2024-01-07T15:03:46;2.40;99.90
43581;DHT22;29175;51.030;4.606;2024-01-07T15:06:11;2.20;99.90
43581;DHT22;29175;51.030;4.606;2024-01-07T15:08:40;2.10;99.90
43581;DHT22;29175;51.030;4.606;2024-01-07T15:11:06;2.00;99.90
43581;DHT22;29175;51.030;4.606;2024-01-07T15:13:32;2.00;99.90
43581;DHT22;29175;51.030;4.606;2024-01-07T15:16:00;2.10;99.90
43581;DHT22;29175;51.030;4.606;2024-01-07T15:18:26;2.10;99.90
43581;DHT22;29175;51.030;4.606;2024-01-07T15:20:52;2.30;99.90
43581;DHT22;29175;51.030;4.606;2024-01-07T15:23:18;2.20;99.90
43581;DHT22;29175;51.030;4.606;2024-01-07T15:25:43;2.10;99.90
43581;DHT22;29175;51.030;4.606;2024-01-07T15:28:09;2.00;99.90
43581;DHT22;29175;51.030;4.606;2024-01-07T15:30:35;1.90;99.90
43581;DHT22;29175;51.030;4.606;2024-01-07T15:33:02;2.00;99.90
43581;DHT22;29175;51.030;4.606;2024-01-07T15:35:27;2.00;99.90
43581;DHT22;29175;51.030;4.606;2024-01-07T15:37:53;2.00;99.90
43581;DHT22;29175;51.030;4.606;2024-01-07T15:40:21;2.00;99.90
43581;DHT22;29175;51.030;4.606;2024-01-07T15:42:47;1.80;99.90
43581;DHT22;29175;51.030;4.606;2024-01-07T15:45:13;1.90;99.90
43581;DHT22;29175;51.030;4.606;2024-01-07T15:47:38;1.80;99.90
43581;DHT22;29175;51.030;4.606;2024-01-07T15:50:04;1.90;99.90
43581;DHT22;29175;51.030;4.606;2024-01-07T15:52:32;1.70;99.90
43581;DHT22;29175;51.030;4.606;2024-01-07T15:54:58;1.70;99.90
43581;DHT22;29175;51.030;4.606;2024-01-07T15:57:24;1.60;99.90
43581;DHT22;29175;51.030;4.606;2024-01-07T15:59:49;1.80;99.90
43581;DHT22;29175;51.030;4.606;2024-01-07T16:02:15;1.80;99.90
43581;DHT22;29175;51.030;4.606;2024-01-07T16:04:41;1.60;99.90
43581;DHT22;29175;51.030;4.606;2024-01-07T16:07:06;1.60;99.90
43581;DHT22;29175;51.030;4.606;2024-01-07T16:09:32;1.70;99.90